Terminal Aerodrome Forecast
Issued by NWS Pittsburgh, PA

Current Version | Previous Version | Graphics & Text | Print | Product List | Glossary On
Versions: 1 2 3 4 5 6 7 8 9 10 11 12 13 14 15 16 17 18 19 20 21 22 23 24 25 26 27 28
138
FTUS41 KPBZ 192118 AAA
TAFPIT
TAF AMD
KPIT 192118Z 1921/2024 00000KT P6SM FEW050
     FM201000 00000KT 4SM BR FEW050
     FM201300 00000KT P6SM SCT050
     FM202000 30004KT P6SM BKN050 PROB30 2020/2024 -TSRA BKN040CB=

USA.gov is the U.S. government's official web portal to all federal, state and local government web resources and services.